Time,TemperatureF,DewpointF,PressureIn,WindDirection,WindDirectionDegrees,WindSpeedMPH,WindSpeedGustMPH,Humidity,HourlyPrecipIn,Conditions,Clouds,dailyrainin,SolarRadiationWatts/m^2,SoftwareType,DateUTC
2013-09-02 00:00:00,88.4,71.2,29.81,NNE,23,2.0,6.0,57,0.00,,CLR,0.00,0.00,VWS V15.00,2013-09-02 05:00:00,
2013-09-02 00:01:00,85.9,70.9,29.80,SSW,195,3.0,10.0,61,0.00,,OVC140,0.00,0.00,VWS V14.01,2013-09-02 05:01:00,
2013-09-02 00:06:00,85.6,70.1,29.80,SSW,210,11.0,13.0,60,0.00,,OVC140,0.00,0.00,VWS V14.01,2013-09-02 05:06:00,
2013-09-02 00:10:00,88.1,71.0,29.81,WSW,257,3.0,4.0,57,0.00,,CLR,0.00,0.00,VWS V15.00,2013-09-02 05:10:00,
2013-09-02 00:11:00,85.8,70.3,29.80,SSE,157,3.0,15.0,60,0.00,,OVC140,0.00,0.00,VWS V14.01,2013-09-02 05:11:00,
2013-09-02 00:16:00,85.8,71.3,29.80,SSW,200,2.0,9.0,62,0.00,,OVC140,0.00,0.00,VWS V14.01,2013-09-02 05:16:00,
2013-09-02 00:20:00,88.3,70.6,29.82,NNW,340,1.0,5.0,56,0.00,,OVC270,0.00,0.00,VWS V15.00,2013-09-02 05:20:00,
2013-09-02 00:21:00,85.5,71.0,29.80,SSW,207,3.0,10.0,62,0.00,,OVC140,0.00,0.00,VWS V14.01,2013-09-02 05:21:00,
2013-09-02 00:26:00,85.4,70.4,29.80,SSW,205,4.0,11.0,61,0.00,,OVC140,0.00,0.00,VWS V14.01,2013-09-02 05:26:00,
2013-09-02 00:30:00,88.1,71.0,29.81,SW,222,1.0,2.0,57,0.00,,CLR,0.00,0.00,VWS V15.00,2013-09-02 05:30:00,
2013-09-02 00:31:00,85.4,69.9,29.80,South,191,4.0,11.0,60,0.00,,OVC140,0.00,0.00,VWS V14.01,2013-09-02 05:31:00,
2013-09-02 00:36:00,85.1,70.2,29.80,SSE,165,4.0,10.0,61,0.00,,,0.00,0.00,VWS V14.01,2013-09-02 05:36:00,
2013-09-02 00:40:00,87.7,71.6,29.81,SSE,155,1.0,5.0,59,0.00,,CLR,0.00,0.00,VWS V15.00,2013-09-02 05:40:00,
2013-09-02 00:41:00,84.8,70.3,29.80,SW,218,3.0,10.0,62,0.00,,,0.00,0.00,VWS V14.01,2013-09-02 05:41:00,
2013-09-02 00:46:00,84.8,70.3,29.80,SSW,208,3.0,6.0,62,0.00,,,0.00,0.00,VWS V14.01,2013-09-02 05:46:00,
2013-09-02 00:50:00,86.7,72.6,29.80,SSE,168,2.0,11.0,63,0.00,,CLR,0.00,0.00,VWS V15.00,2013-09-02 05:50:00,
2013-09-02 00:51:00,85.0,71.0,29.80,SSW,199,2.0,7.0,63,0.00,,OVC250,0.00,0.00,VWS V14.01,2013-09-02 05:51:00,
2013-09-02 00:56:00,85.0,71.0,29.80,SSW,203,3.0,7.0,63,0.00,,OVC250,0.00,0.00,VWS V14.01,2013-09-02 05:56:00,
2013-09-02 01:00:00,85.8,70.8,29.80,SSW,198,1.0,10.0,61,0.00,,CLR,0.00,0.00,VWS V15.00,2013-09-02 06:00:00,
2013-09-02 01:01:00,84.9,70.9,29.80,South,187,4.0,8.0,63,0.00,,OVC250,0.00,0.00,VWS V14.01,2013-09-02 06:01:00,
2013-09-02 01:06:00,84.8,71.3,29.80,SSE,163,3.0,9.0,64,0.00,,,0.00,0.00,VWS V14.01,2013-09-02 06:06:00,
2013-09-02 01:10:00,85.8,70.3,29.80,SSE,155,5.0,15.0,60,0.00,,CLR,0.00,0.00,VWS V15.00,2013-09-02 06:10:00,
2013-09-02 01:11:00,84.8,70.8,29.80,South,187,2.0,10.0,63,0.00,,OVC250,0.00,0.00,VWS V14.01,2013-09-02 06:11:00,
2013-09-02 01:16:00,84.6,71.1,29.80,SSW,200,2.0,9.0,64,0.00,,OVC250,0.00,0.00,VWS V14.01,2013-09-02 06:16:00,
2013-09-02 01:20:00,85.5,71.0,29.80,SSW,192,3.0,10.0,62,0.00,,CLR,0.00,0.00,VWS V15.00,2013-09-02 06:20:00,
2013-09-02 01:21:00,84.6,71.6,29.80,SSW,200,2.0,9.0,65,0.00,,OVC250,0.00,0.00,VWS V14.01,2013-09-02 06:21:00,
2013-09-02 01:26:00,84.6,71.1,29.80,SW,222,5.0,7.0,64,0.00,,OVC250,0.00,0.00,VWS V14.01,2013-09-02 06:26:00,
2013-09-02 01:30:00,85.4,69.9,29.80,South,175,5.0,11.0,60,0.00,,CLR,0.00,0.00,VWS V15.00,2013-09-02 06:30:00,
2013-09-02 01:31:00,84.7,71.2,29.79,SW,219,4.0,9.0,64,0.00,,OVC250,0.00,0.00,VWS V14.01,2013-09-02 06:31:00,
2013-09-02 01:36:00,84.7,71.6,29.79,SSW,213,5.0,6.0,65,0.00,,OVC250,0.00,0.00,VWS V14.01,2013-09-02 06:36:00,
2013-09-02 01:40:00,84.8,70.3,29.80,South,180,5.0,10.0,62,0.00,,CLR,0.00,0.00,VWS V15.00,2013-09-02 06:40:00,
2013-09-02 01:41:00,84.6,70.6,29.79,SSW,213,3.0,6.0,63,0.00,,OVC250,0.00,0.00,VWS V14.01,2013-09-02 06:41:00,
2013-09-02 01:46:00,84.6,71.1,29.79,SW,215,3.0,4.0,64,0.00,,OVC250,0.00,0.00,VWS V14.01,2013-09-02 06:46:00,
2013-09-02 01:50:00,85.0,71.0,29.80,SW,215,4.0,7.0,63,0.00,,CLR,0.00,0.00,VWS V15.00,2013-09-02 06:50:00,
2013-09-02 01:51:00,84.8,70.8,29.79,SSW,209,4.0,5.0,63,0.00,,OVC250,0.00,0.00,VWS V14.01,2013-09-02 06:51:00,
2013-09-02 01:56:00,84.7,70.7,29.79,SSW,195,1.0,4.0,63,0.00,,OVC250,0.00,0.00,VWS V14.01,2013-09-02 06:56:00,
2013-09-02 02:00:00,84.9,70.9,29.80,SSW,196,3.0,8.0,63,0.00,,CLR,0.00,0.00,VWS V15.00,2013-09-02 07:00:00,
2013-09-02 02:01:00,84.6,70.6,29.79,SSW,213,3.0,6.0,63,0.00,,OVC250,0.00,0.00,VWS V14.01,2013-09-02 07:01:00,
2013-09-02 02:06:00,84.4,70.4,29.79,SW,217,1.0,4.0,63,0.00,,OVC250,0.00,0.00,VWS V14.01,2013-09-02 07:06:00,
2013-09-02 02:10:00,84.8,71.3,29.80,SSW,198,3.0,10.0,64,0.00,,CLR,0.00,0.00,VWS V15.00,2013-09-02 07:10:00,
2013-09-02 02:11:00,84.3,70.3,29.79,ESE,107,2.0,4.0,63,0.00,,OVC250,0.00,0.00,VWS V14.01,2013-09-02 07:11:00,
2013-09-02 02:16:00,84.1,70.2,29.80,SSE,148,0.0,1.0,63,0.00,,OVC250,0.00,0.00,VWS V14.01,2013-09-02 07:16:00,
2013-09-02 02:20:00,84.6,71.6,29.80,SSW,205,3.0,9.0,65,0.00,,CLR,0.00,0.00,VWS V15.00,2013-09-02 07:20:00,
2013-09-02 02:22:00,83.8,69.9,29.80,SSW,211,0.0,3.0,63,0.00,,OVC250,0.00,0.00,VWS V14.01,2013-09-02 07:22:00,
2013-09-02 02:27:00,83.5,70.1,29.80,SW,227,0.0,2.0,64,0.00,,OVC250,0.00,0.00,VWS V14.01,2013-09-02 07:27:00,
2013-09-02 02:30:00,84.7,71.2,29.79,SSW,209,4.0,9.0,64,0.00,,CLR,0.00,0.00,VWS V15.00,2013-09-02 07:30:00,
2013-09-02 02:32:00,83.4,69.9,29.81,SSE,153,0.0,2.0,64,0.00,,OVC250,0.00,0.00,VWS V14.01,2013-09-02 07:32:00,
2013-09-02 02:37:00,83.3,69.4,29.81,SW,221,0.0,2.0,63,0.00,,OVC280,0.00,0.00,VWS V14.01,2013-09-02 07:37:00,
2013-09-02 02:40:00,84.6,71.1,29.79,SSW,205,3.0,6.0,64,0.00,,CLR,0.00,0.00,VWS V15.00,2013-09-02 07:40:00,
2013-09-02 02:42:00,83.2,69.8,29.81,SW,221,0.0,2.0,64,0.00,,OVC280,0.00,0.00,VWS V14.01,2013-09-02 07:42:00,
2013-09-02 02:47:00,83.0,69.6,29.81,SW,221,0.0,1.0,64,0.00,,OVC280,0.00,0.00,VWS V14.01,2013-09-02 07:47:00,
2013-09-02 02:50:00,84.8,70.8,29.79,SSW,198,3.0,5.0,63,0.00,,CLR,0.00,0.00,VWS V15.00,2013-09-02 07:50:00,
2013-09-02 02:52:00,82.9,69.5,29.81,SW,221,0.0,1.0,64,0.00,,OVC280,0.00,0.00,VWS V14.01,2013-09-02 07:52:00,
2013-09-02 02:57:00,82.9,69.5,29.81,SSE,165,0.0,1.0,64,0.00,,OVC280,0.00,0.00,VWS V14.01,2013-09-02 07:57:00,
2013-09-02 03:00:00,84.6,70.6,29.79,SSW,203,1.0,6.0,63,0.00,,CLR,0.00,0.00,VWS V15.00,2013-09-02 08:00:00,
2013-09-02 03:02:00,82.8,69.8,29.82,SSE,165,0.0,1.0,65,0.00,,OVC280,0.00,0.00,VWS V14.01,2013-09-02 08:02:00,
2013-09-02 03:07:00,82.7,69.8,29.82,SE,141,0.0,1.0,65,0.00,,OVC280,0.00,0.00,VWS V14.01,2013-09-02 08:07:00,
2013-09-02 03:10:00,84.3,70.3,29.79,South,169,1.0,4.0,63,0.00,,CLR,0.00,0.00,VWS V15.00,2013-09-02 08:10:00,
2013-09-02 03:12:00,82.6,71.0,29.82,SE,143,0.0,1.0,68,0.00,,OVC280,0.00,0.00,VWS V14.01,2013-09-02 08:12:00,
2013-09-02 03:17:00,82.5,70.4,29.82,ESE,114,0.0,1.0,67,0.00,,OVC280,0.00,0.00,VWS V14.01,2013-09-02 08:17:00,
2013-09-02 03:20:00,83.8,69.9,29.80,SSW,210,2.0,3.0,63,0.00,,CLR,0.00,0.00,VWS V15.00,2013-09-02 08:20:00,
2013-09-02 03:22:00,82.5,70.4,29.82,SSW,213,0.0,3.0,67,0.00,,OVC280,0.00,0.00,VWS V14.01,2013-09-02 08:22:00,
2013-09-02 03:27:00,82.5,70.4,29.82,SSW,213,0.0,0.0,67,0.00,,OVC280,0.00,0.00,VWS V14.01,2013-09-02 08:27:00,
2013-09-02 03:30:00,83.3,69.9,29.81,SSW,210,1.0,2.0,64,0.00,,CLR,0.00,0.00,VWS V15.00,2013-09-02 08:30:00,
2013-09-02 03:32:00,82.5,70.4,29.83,SSW,213,0.0,1.0,67,0.00,,OVC280,0.00,0.00,VWS V14.01,2013-09-02 08:32:00,
2013-09-02 03:37:00,82.4,70.3,29.83,SSW,213,0.0,1.0,67,0.00,,,0.00,0.00,VWS V14.01,2013-09-02 08:37:00,
2013-09-02 03:40:00,83.2,69.8,29.81,SW,221,0.0,2.0,64,0.00,,CLR,0.00,0.00,VWS V15.00,2013-09-02 08:40:00,
2013-09-02 03:42:00,82.5,70.4,29.83,SW,219,1.0,1.0,67,0.00,,,0.00,0.00,VWS V14.01,2013-09-02 08:42:00,
2013-09-02 03:47:00,82.6,70.1,29.83,SW,218,1.0,1.0,66,0.00,,,0.00,0.00,VWS V14.01,2013-09-02 08:47:00,
2013-09-02 03:50:00,83.0,69.6,29.81,SW,221,0.0,1.0,64,0.00,,CLR,0.00,0.00,VWS V15.00,2013-09-02 08:50:00,
2013-09-02 03:52:00,82.5,70.4,29.83,NE,42,2.0,2.0,67,0.00,,,0.00,0.00,VWS V14.01,2013-09-02 08:52:00,
2013-09-02 03:57:00,82.4,70.8,29.83,NE,40,2.0,2.0,68,0.00,,,0.00,0.00,VWS V14.01,2013-09-02 08:57:00,
2013-09-02 04:00:00,82.8,69.8,29.82,SW,214,0.0,1.0,65,0.00,,CLR,0.00,0.00,VWS V15.00,2013-09-02 09:00:00,
2013-09-02 04:02:00,82.3,70.7,29.83,NNE,28,2.0,3.0,68,0.00,,,0.00,0.00,VWS V14.01,2013-09-02 09:02:00,
2013-09-02 04:07:00,82.3,70.7,29.83,NNE,25,2.0,3.0,68,0.00,,OVC150,0.00,0.00,VWS V14.01,2013-09-02 09:07:00,
2013-09-02 04:10:00,82.6,71.0,29.82,SE,141,0.0,1.0,68,0.00,,CLR,0.00,0.00,VWS V15.00,2013-09-02 09:10:00,
2013-09-02 04:12:00,82.2,70.6,29.83,NNE,32,0.0,3.0,68,0.00,,,0.00,0.00,VWS V14.01,2013-09-02 09:12:00,
2013-09-02 04:17:00,82.2,70.6,29.83,NNE,31,0.0,1.0,68,0.00,,,0.00,0.00,VWS V14.01,2013-09-02 09:17:00,
2013-09-02 04:20:00,82.5,70.4,29.82,SSW,213,0.0,3.0,67,0.00,,CLR,0.00,0.00,VWS V15.00,2013-09-02 09:20:00,
2013-09-02 04:22:00,82.0,70.4,29.83,NNE,32,0.0,1.0,68,0.00,,,0.00,0.00,VWS V14.01,2013-09-02 09:22:00,
2013-09-02 04:27:00,81.9,70.3,29.83,NNE,32,0.0,0.0,68,0.00,,,0.00,0.00,VWS V14.01,2013-09-02 09:27:00,
2013-09-02 04:30:00,82.5,70.4,29.83,SSW,213,0.0,1.0,67,0.00,,CLR,0.00,0.00,VWS V15.00,2013-09-02 09:30:00,
2013-09-02 04:32:00,81.8,70.6,29.83,NNE,31,0.0,0.0,69,0.00,,,0.00,0.00,VWS V14.01,2013-09-02 09:32:00,
2013-09-02 04:37:00,81.6,70.9,29.83,NNE,31,0.0,0.0,70,0.00,,,0.00,0.00,VWS V14.01,2013-09-02 09:37:00,
2013-09-02 04:40:00,82.5,70.0,29.83,SW,218,0.0,1.0,66,0.00,,CLR,0.00,0.00,VWS V15.00,2013-09-02 09:40:00,
2013-09-02 04:42:00,81.4,70.7,29.83,NNE,31,0.0,0.0,70,0.00,,,0.00,0.00,VWS V14.01,2013-09-02 09:42:00,
2013-09-02 04:47:00,81.3,70.6,29.83,NNE,31,0.0,0.0,70,0.00,,,0.00,0.00,VWS V14.01,2013-09-02 09:47:00,
2013-09-02 04:50:00,82.5,70.4,29.83,NE,42,1.0,2.0,67,0.00,,CLR,0.00,0.00,VWS V15.00,2013-09-02 09:50:00,
2013-09-02 04:52:00,81.2,70.5,29.83,NNE,32,0.0,0.0,70,0.00,,OVC140,0.00,0.00,VWS V14.01,2013-09-02 09:52:00,
2013-09-02 04:57:00,81.1,70.8,29.83,NNE,31,0.0,0.0,71,0.00,,OVC140,0.00,0.00,VWS V14.01,2013-09-02 09:57:00,
2013-09-02 05:00:00,82.3,70.7,29.83,NNE,27,2.0,3.0,68,0.00,,CLR,0.00,0.00,VWS V15.00,2013-09-02 10:00:00,
2013-09-02 05:02:00,81.0,70.7,29.83,NNE,31,0.0,0.0,71,0.00,,OVC140,0.00,0.00,VWS V14.01,2013-09-02 10:02:00,
2013-09-02 05:07:00,81.0,71.1,29.83,NNE,31,0.0,0.0,72,0.00,,,0.00,0.00,VWS V14.01,2013-09-02 10:07:00,
2013-09-02 05:10:00,82.2,70.6,29.83,NNE,31,0.0,3.0,68,0.00,,CLR,0.00,0.00,VWS V15.00,2013-09-02 10:10:00,
2013-09-02 05:12:00,81.1,71.2,29.83,NNE,32,0.0,0.0,72,0.00,,OVC140,0.00,0.00,VWS V14.01,2013-09-02 10:12:00,
2013-09-02 05:17:00,81.4,71.9,29.84,NNE,31,0.0,0.0,73,0.00,,OVC140,0.00,0.00,VWS V14.01,2013-09-02 10:17:00,
2013-09-02 05:20:00,82.0,70.4,29.83,NNE,31,0.0,1.0,68,0.00,,CLR,0.00,0.00,VWS V15.00,2013-09-02 10:20:00,
2013-09-02 05:22:00,81.6,71.7,29.84,NNE,28,0.0,0.0,72,0.00,,OVC140,0.00,0.00,VWS V14.01,2013-09-02 10:22:00,
2013-09-02 05:27:00,82.0,71.3,29.84,WSW,257,0.0,0.0,70,0.00,,OVC140,0.00,0.00,VWS V14.01,2013-09-02 10:27:00,
2013-09-02 05:30:00,81.8,70.6,29.83,NNE,31,0.0,0.0,69,0.00,,CLR,0.00,0.00,VWS V15.00,2013-09-02 10:30:00,
2013-09-02 05:32:00,82.3,71.1,29.84,WSW,255,0.0,0.0,69,0.00,,OVC140,0.00,0.00,VWS V14.01,2013-09-02 10:32:00,
2013-09-02 05:37:00,82.3,71.1,29.84,WSW,253,0.0,0.0,69,0.00,,,0.00,0.00,VWS V14.01,2013-09-02 10:37:00,
2013-09-02 05:40:00,81.4,70.7,29.83,NNE,32,0.0,0.0,70,0.00,,CLR,0.00,0.00,VWS V15.00,2013-09-02 10:40:00,
2013-09-02 05:42:00,82.3,71.1,29.84,NE,53,3.0,4.0,69,0.00,,,0.00,0.00,VWS V14.01,2013-09-02 10:42:00,
2013-09-02 05:47:00,82.4,71.2,29.84,NNE,27,4.0,5.0,69,0.00,,,0.00,0.00,VWS V14.01,2013-09-02 10:47:00,
2013-09-02 05:50:00,81.2,70.5,29.83,NNE,31,0.0,0.0,70,0.00,,CLR,0.00,0.00,VWS V15.00,2013-09-02 10:50:00,
2013-09-02 05:52:00,82.3,71.1,29.84,NNE,19,5.0,5.0,69,0.00,,OVC210,0.00,0.00,VWS V14.01,2013-09-02 10:52:00,
2013-09-02 05:57:00,82.2,71.0,29.84,NE,34,2.0,4.0,69,0.00,,OVC210,0.00,0.00,VWS V14.01,2013-09-02 10:57:00,
2013-09-02 06:00:00,81.0,70.7,29.83,NNE,32,0.0,0.0,71,0.00,,CLR,0.00,0.00,VWS V15.00,2013-09-02 11:00:00,
2013-09-02 06:02:00,82.1,70.9,29.85,North,5,2.0,4.0,69,0.00,,OVC210,0.00,0.00,VWS V14.01,2013-09-02 11:02:00,
2013-09-02 06:07:00,82.1,70.9,29.85,NE,34,3.0,3.0,69,0.00,,OVC140,0.00,0.00,VWS V14.01,2013-09-02 11:07:00,
2013-09-02 06:10:00,81.2,71.7,29.83,NNE,32,0.0,0.0,73,0.00,,CLR,0.00,0.00,VWS V15.00,2013-09-02 11:10:00,
2013-09-02 06:12:00,82.1,70.9,29.85,NE,38,2.0,3.0,69,0.00,,OVC210,0.00,0.00,VWS V14.01,2013-09-02 11:12:00,
2013-09-02 06:17:00,82.1,70.9,29.85,NE,34,0.0,1.0,69,0.00,,OVC210,0.00,0.00,VWS V14.01,2013-09-02 11:17:00,
2013-09-02 06:20:00,81.7,71.8,29.84,NNE,28,0.0,0.0,72,0.00,,CLR,0.00,0.00,VWS V15.00,2013-09-02 11:20:00,
2013-09-02 06:22:00,82.0,71.7,29.85,West,276,1.0,3.0,71,0.00,,OVC210,0.00,0.00,VWS V14.01,2013-09-02 11:22:00,
2013-09-02 06:27:00,81.9,71.6,29.85,NNE,19,2.0,3.0,71,0.00,,OVC210,0.00,0.00,VWS V14.01,2013-09-02 11:27:00,
2013-09-02 06:30:00,82.3,71.1,29.84,WSW,256,0.0,0.0,69,0.00,,CLR,0.00,0.00,VWS V15.00,2013-09-02 11:30:00,
2013-09-02 06:32:00,81.9,72.0,29.85,NNE,19,1.0,5.0,72,0.00,,OVC210,0.00,0.00,VWS V14.01,2013-09-02 11:32:00,
2013-09-02 06:37:00,81.9,72.0,29.85,NNE,27,3.0,4.0,72,0.00,,BKN220,0.00,0.00,VWS V14.01,2013-09-02 11:37:00,
2013-09-02 06:40:00,82.3,71.1,29.84,NNE,13,4.0,5.0,69,0.00,,CLR,0.00,0.00,VWS V15.00,2013-09-02 11:40:00,
2013-09-02 06:42:00,81.9,72.0,29.85,NE,55,0.0,4.0,72,0.00,,BKN220,0.00,0.00,VWS V14.01,2013-09-02 11:42:00,
2013-09-02 06:47:00,81.7,72.6,29.86,ENE,59,0.0,3.0,74,0.00,,BKN220,0.00,0.00,VWS V14.01,2013-09-02 11:47:00,
2013-09-02 06:50:00,82.3,71.1,29.84,NNE,18,3.0,5.0,69,0.00,,CLR,0.00,0.00,VWS V15.00,2013-09-02 11:50:00,
2013-09-02 06:52:00,81.4,73.1,29.86,NE,38,2.0,3.0,76,0.00,,BKN220,0.00,0.00,VWS V14.01,2013-09-02 11:52:00,
2013-09-02 06:57:00,80.9,73.4,29.86,NE,40,1.0,5.0,78,0.00,,BKN220,0.00,0.00,VWS V14.01,2013-09-02 11:57:00,
2013-09-02 07:00:00,82.1,70.9,29.85,NE,34,2.0,4.0,69,0.00,,CLR,0.00,0.00,VWS V15.00,2013-09-02 12:00:00,
2013-09-02 07:02:00,80.4,73.3,29.88,NE,36,2.0,5.0,79,0.00,,BKN220,0.00,0.00,VWS V14.01,2013-09-02 12:02:00,
2013-09-02 07:07:00,80.0,73.3,29.88,NNE,18,2.0,4.0,80,0.00,,BKN220,0.00,0.00,VWS V14.01,2013-09-02 12:07:00,
2013-09-02 07:10:00,82.1,70.9,29.85,NE,38,1.0,3.0,69,0.00,,CLR,0.00,0.00,VWS V15.00,2013-09-02 12:10:00,
2013-09-02 07:12:00,79.6,72.9,29.88,SE,128,9.0,9.0,80,0.00,,BKN220,0.00,0.00,VWS V14.01,2013-09-02 12:12:00,
2013-09-02 07:17:00,79.1,72.8,29.90,ENE,77,1.0,8.0,81,0.00,,BKN220,0.00,0.00,VWS V14.01,2013-09-02 12:17:00,
2013-09-02 07:20:00,82.0,71.7,29.85,West,275,1.0,3.0,71,0.00,,CLR,0.00,0.00,VWS V15.00,2013-09-02 12:20:00,
2013-09-02 07:22:00,78.6,72.3,29.90,ESE,105,3.0,8.0,81,0.00,,BKN220,0.00,0.00,VWS V14.01,2013-09-02 12:22:00,
2013-09-02 07:27:00,78.6,70.0,29.90,NNE,16,2.0,6.0,75,0.00,,BKN220,0.00,0.00,VWS V14.01,2013-09-02 12:27:00,
2013-09-02 07:30:00,81.9,72.0,29.85,NNE,18,1.0,5.0,72,0.00,,CLR,0.00,0.00,VWS V15.00,2013-09-02 12:30:00,
2013-09-02 07:32:00,79.0,70.4,29.88,West,271,1.0,6.0,75,0.00,,BKN220,0.00,0.00,VWS V14.01,2013-09-02 12:32:00,
2013-09-02 07:37:00,79.0,70.8,29.88,WSW,252,1.0,2.0,76,0.00,,-RA,0.00,0.00,VWS V14.01,2013-09-02 12:37:00,
2013-09-02 07:40:00,81.9,72.0,29.85,NE,55,0.0,4.0,72,0.00,,CLR,0.00,0.00,VWS V15.00,2013-09-02 12:40:00,
2013-09-02 07:42:00,79.1,70.5,29.88,SSW,210,2.0,5.0,75,0.00,,-RA,0.00,0.00,VWS V14.01,2013-09-02 12:42:00,
2013-09-02 07:47:00,79.4,71.9,29.87,West,272,2.0,4.0,78,0.00,,-RA,0.00,0.00,VWS V14.01,2013-09-02 12:47:00,
2013-09-02 07:50:00,81.4,73.1,29.86,NE,39,1.0,3.0,76,0.00,,CLR,0.00,0.00,VWS V15.00,2013-09-02 12:50:00,
2013-09-02 07:52:00,79.2,73.2,29.87,WNW,283,3.0,9.0,82,0.02,,-RA,0.02,0.00,VWS V14.01,2013-09-02 12:52:00,
2013-09-02 07:57:00,78.6,73.7,29.87,West,267,1.0,6.0,85,0.06,,-RA,0.06,0.00,VWS V14.01,2013-09-02 12:57:00,
2013-09-02 08:00:00,80.4,73.3,29.88,NE,38,2.0,5.0,79,0.00,,CLR,0.00,0.00,VWS V15.00,2013-09-02 13:00:00,
2013-09-02 08:02:00,78.2,74.0,29.86,West,277,1.0,6.0,87,0.06,,-RA,0.06,0.00,VWS V14.01,2013-09-02 13:02:00,
2013-09-02 08:07:00,77.9,74.1,29.86,WSW,256,2.0,5.0,88,0.07,,-RA,0.07,0.00,VWS V14.01,2013-09-02 13:07:00,
2013-09-02 08:10:00,79.6,72.9,29.88,NE,49,6.0,9.0,80,0.00,,CLR,0.00,0.00,VWS V15.00,2013-09-02 13:10:00,
2013-09-02 08:12:00,77.7,74.2,29.86,WSW,253,1.0,5.0,89,0.07,,-RA,0.07,0.00,VWS V14.01,2013-09-02 13:12:00,
2013-09-02 08:17:00,77.6,73.8,29.86,WNW,301,2.0,4.0,88,0.07,,-RA,0.07,0.00,VWS V14.01,2013-09-02 13:17:00,
2013-09-02 08:20:00,78.6,72.3,29.90,East,90,3.0,8.0,81,0.00,,CLR,0.00,0.00,VWS V15.00,2013-09-02 13:20:00,
2013-09-02 08:22:00,77.6,73.8,29.86,WSW,241,2.0,4.0,88,0.07,,-RA,0.07,0.00,VWS V14.01,2013-09-02 13:22:00,
2013-09-02 08:27:00,77.6,73.8,29.86,WSW,242,4.0,5.0,88,0.07,,-RA,0.07,0.00,VWS V14.01,2013-09-02 13:27:00,
2013-09-02 08:30:00,79.0,70.4,29.88,West,271,1.0,6.0,75,0.00,,CLR,0.00,0.00,VWS V15.00,2013-09-02 13:30:00,
2013-09-02 08:32:00,77.7,73.5,29.86,NNE,31,0.0,5.0,87,0.07,,-RA,0.07,0.00,VWS V14.01,2013-09-02 13:32:00,
2013-09-02 08:37:00,77.8,74.0,29.86,NNE,30,1.0,2.0,88,0.07,,-RA,0.07,0.00,VWS V14.01,2013-09-02 13:37:00,
2013-09-02 08:40:00,79.1,70.5,29.88,SSW,210,1.0,5.0,75,0.00,,CLR,0.00,0.00,VWS V15.00,2013-09-02 13:40:00,
2013-09-02 08:42:00,77.7,73.9,29.86,NNE,28,1.0,1.0,88,0.07,,-RA,0.07,0.00,VWS V14.01,2013-09-02 13:42:00,
2013-09-02 08:47:00,77.8,74.3,29.87,NNE,26,1.0,3.0,89,0.07,,-RA,0.07,0.00,VWS V14.01,2013-09-02 13:47:00,
2013-09-02 08:50:00,79.2,73.2,29.87,West,276,3.0,9.0,82,0.02,,CLR,0.02,0.00,VWS V15.00,2013-09-02 13:50:00,
2013-09-02 08:52:00,77.8,74.0,29.87,NNE,13,1.0,1.0,88,0.05,,-RA,0.07,0.00,VWS V14.01,2013-09-02 13:52:00,
2013-09-02 08:57:00,78.1,74.3,29.87,ESE,109,1.0,2.0,88,0.05,,-RA,0.07,0.00,VWS V14.01,2013-09-02 13:57:00,
2013-09-02 09:00:00,78.2,74.0,29.86,West,277,1.0,6.0,87,0.06,,CLR,0.06,0.00,VWS V15.00,2013-09-02 14:00:00,
2013-09-02 09:02:00,78.3,74.5,29.90,ENE,67,4.0,6.0,88,0.05,,-RA,0.07,0.00,VWS V14.01,2013-09-02 14:02:00,
2013-09-02 09:07:00,78.5,74.7,29.90,ENE,68,2.0,6.0,88,0.01,,-RA,0.07,0.00,VWS V14.01,2013-09-02 14:07:00,
2013-09-02 09:10:00,77.7,74.2,29.86,WSW,253,1.0,5.0,89,0.07,,CLR,0.07,0.00,VWS V15.00,2013-09-02 14:10:00,
2013-09-02 09:12:00,78.3,73.8,29.90,East,81,4.0,4.0,86,0.00,,-RA,0.07,0.00,VWS V14.01,2013-09-02 14:12:00,
2013-09-02 09:17:00,78.0,72.8,29.91,East,85,8.0,10.0,84,0.00,,-RA,0.07,0.00,VWS V14.01,2013-09-02 14:17:00,
2013-09-02 09:20:00,77.6,73.8,29.86,WSW,241,2.0,4.0,88,0.07,,CLR,0.07,0.00,VWS V15.00,2013-09-02 14:20:00,
2013-09-02 09:22:00,77.9,73.0,29.91,ENE,61,3.0,4.0,85,0.00,,-RA,0.07,0.00,VWS V14.01,2013-09-02 14:22:00,
2013-09-02 09:27:00,78.1,73.2,29.91,North,351,4.0,10.0,85,0.00,,-RA,0.07,0.00,VWS V14.01,2013-09-02 14:27:00,
2013-09-02 09:30:00,77.7,73.5,29.86,NNE,31,0.0,5.0,87,0.07,,CLR,0.07,0.00,VWS V15.00,2013-09-02 14:30:00,
2013-09-02 09:32:00,78.4,73.2,29.92,ESE,108,5.0,6.0,84,0.00,,-RA,0.07,0.00,VWS V14.01,2013-09-02 14:32:00,
2013-09-02 09:37:00,78.5,72.9,29.92,ESE,103,3.0,10.0,83,0.00,, +RA,0.07,0.00,VWS V14.01,2013-09-02 14:37:00,
2013-09-02 09:40:00,77.7,73.9,29.86,NNE,28,1.0,2.0,88,0.07,,CLR,0.07,0.00,VWS V15.00,2013-09-02 14:40:00,
2013-09-02 09:42:00,78.8,72.8,29.92,East,81,6.0,6.0,82,0.00,, +RA,0.07,0.00,VWS V14.01,2013-09-02 14:42:00,
2013-09-02 09:47:00,78.9,72.9,29.93,ENE,74,5.0,13.0,82,0.00,, +RA,0.07,0.00,VWS V14.01,2013-09-02 14:47:00,
2013-09-02 09:50:00,77.8,74.0,29.87,NNE,22,1.0,4.0,88,0.07,,CLR,0.07,0.00,VWS V15.00,2013-09-02 14:50:00,
2013-09-02 09:52:00,79.1,72.8,29.93,ENE,70,2.0,2.0,81,0.00,,-RA,0.07,0.00,VWS V14.01,2013-09-02 14:52:00,
2013-09-02 09:57:00,79.2,72.9,29.93,NNE,22,4.0,10.0,81,0.00,,-RA,0.07,0.00,VWS V14.01,2013-09-02 14:57:00,
2013-09-02 10:00:00,78.3,74.5,29.90,ENE,67,4.0,6.0,88,0.05,,CLR,0.07,0.00,VWS V15.00,2013-09-02 15:00:00,
2013-09-02 10:02:00,79.3,73.0,29.93,ESE,107,0.0,1.0,81,0.00,,-RA,0.07,0.00,VWS V14.01,2013-09-02 15:02:00,
2013-09-02 10:07:00,79.6,72.9,29.93,ENE,78,3.0,6.0,80,0.00,,-RA,0.07,0.00,VWS V14.01,2013-09-02 15:07:00,
2013-09-02 10:10:00,78.3,73.8,29.90,ENE,61,4.0,6.0,86,0.01,,CLR,0.07,0.00,VWS V15.00,2013-09-02 15:10:00,
2013-09-02 10:12:00,79.7,73.0,29.93,ESE,107,3.0,4.0,80,0.00,,-RA,0.07,0.00,VWS V14.01,2013-09-02 15:12:00,
2013-09-02 10:17:00,79.9,73.6,29.94,ENE,65,1.0,4.0,81,0.00,,-RA,0.07,0.00,VWS V14.01,2013-09-02 15:17:00,
2013-09-02 10:20:00,77.9,73.0,29.91,ENE,71,4.0,10.0,85,0.00,,CLR,0.07,0.00,VWS V15.00,2013-09-02 15:20:00,
2013-09-02 10:22:00,80.1,73.8,29.94,ENE,63,4.0,4.0,81,0.00,,-RA,0.07,0.00,VWS V14.01,2013-09-02 15:22:00,
2013-09-02 10:27:00,80.1,73.4,29.94,ENE,70,3.0,6.0,80,0.00,,-RA,0.07,0.00,VWS V14.01,2013-09-02 15:27:00,
2013-09-02 10:30:00,78.4,73.2,29.92,East,81,6.0,10.0,84,0.00,,CLR,0.07,0.00,VWS V15.00,2013-09-02 15:30:00,
2013-09-02 10:32:00,80.4,73.7,29.94,East,86,0.0,0.0,80,0.00,,-RA,0.07,0.00,VWS V14.01,2013-09-02 15:32:00,
2013-09-02 10:37:00,80.8,73.7,29.94,East,85,5.0,5.0,79,0.00,,-RA,0.07,0.00,VWS V14.01,2013-09-02 15:37:00,
2013-09-02 10:40:00,78.8,72.8,29.92,ENE,65,6.0,10.0,82,0.00,,CLR,0.07,0.00,VWS V15.00,2013-09-02 15:40:00,
2013-09-02 10:42:00,80.9,73.0,29.94,ENE,61,4.0,4.0,77,0.00,,-RA,0.07,0.00,VWS V14.01,2013-09-02 15:42:00,
2013-09-02 10:47:00,81.2,73.3,29.94,ENE,77,0.0,4.0,77,0.00,,-RA,0.07,0.00,VWS V14.01,2013-09-02 15:47:00,
2013-09-02 10:50:00,79.0,72.7,29.93,ENE,71,2.0,13.0,81,0.00,,CLR,0.07,0.00,VWS V15.00,2013-09-02 15:50:00,
2013-09-02 10:52:00,81.5,73.2,29.94,ESE,107,2.0,3.0,76,0.00,,-RA,0.07,0.00,VWS V14.01,2013-09-02 15:52:00,
2013-09-02 10:57:00,81.8,73.5,29.94,East,85,0.0,3.0,76,0.00,,-RA,0.07,0.00,VWS V14.01,2013-09-02 15:57:00,
2013-09-02 11:00:00,79.3,73.0,29.93,ESE,108,1.0,10.0,81,0.00,,CLR,0.07,0.00,VWS V15.00,2013-09-02 16:00:00,
2013-09-02 11:02:00,82.0,74.1,29.95,NNE,24,2.0,2.0,77,0.00,,-RA,0.07,0.00,VWS V14.01,2013-09-02 16:02:00,
2013-09-02 11:07:00,81.9,73.6,29.95,NE,47,1.0,4.0,76,0.00,,-RA,0.07,0.00,VWS V14.01,2013-09-02 16:07:00,
2013-09-02 11:10:00,79.7,73.0,29.93,ENE,74,4.0,6.0,80,0.00,,CLR,0.07,0.00,VWS V15.00,2013-09-02 16:10:00,
2013-09-02 11:12:00,81.7,73.8,29.95,NE,36,4.0,4.0,77,0.00,,-RA,0.07,0.00,VWS V14.01,2013-09-02 16:12:00,
2013-09-02 11:17:00,81.6,73.7,29.96,NNW,348,1.0,4.0,77,0.00,,-RA,0.07,0.00,VWS V14.01,2013-09-02 16:17:00,
2013-09-02 11:20:00,80.1,73.8,29.94,NE,47,3.0,5.0,81,0.00,,CLR,0.07,0.00,VWS V15.00,2013-09-02 16:20:00,
2013-09-02 11:22:00,81.6,73.3,29.96,NNW,342,1.0,1.0,76,0.00,,-RA,0.07,0.00,VWS V14.01,2013-09-02 16:22:00,
2013-09-02 11:27:00,81.6,73.3,29.96,NNE,28,1.0,7.0,76,0.00,,-RA,0.07,0.00,VWS V14.01,2013-09-02 16:27:00,
2013-09-02 11:30:00,80.4,73.7,29.94,East,86,0.0,6.0,80,0.00,,CLR,0.07,0.00,VWS V15.00,2013-09-02 16:30:00,
2013-09-02 11:32:00,81.6,73.7,29.95,NNE,17,3.0,3.0,77,0.00,,-RA,0.07,0.00,VWS V14.01,2013-09-02 16:32:00,
2013-09-02 11:37:00,81.4,73.9,29.95,NE,51,2.0,7.0,78,0.00,,-RA,0.07,0.00,VWS V14.01,2013-09-02 16:37:00,
2013-09-02 11:40:00,80.9,73.0,29.94,ENE,75,2.0,5.0,77,0.00,,CLR,0.07,0.00,VWS V15.00,2013-09-02 16:40:00,
2013-09-02 11:42:00,81.4,75.0,29.95,NNW,343,1.0,1.0,81,0.00,,-RA,0.07,0.00,VWS V14.01,2013-09-02 16:42:00,
2013-09-02 11:47:00,81.3,75.3,29.95,WNW,290,1.0,5.0,82,0.00,,-RA,0.07,0.00,VWS V14.01,2013-09-02 16:47:00,
2013-09-02 11:50:00,81.5,73.2,29.94,ESE,118,3.0,4.0,76,0.00,,CLR,0.07,0.00,VWS V15.00,2013-09-02 16:50:00,
2013-09-02 11:52:00,81.2,75.6,29.95,NNW,347,4.0,5.0,83,0.00,,-RA,0.07,0.00,VWS V14.01,2013-09-02 16:52:00,
2013-09-02 11:57:00,81.0,75.0,29.95,NNE,16,3.0,7.0,82,0.00,,-RA,0.07,0.00,VWS V14.01,2013-09-02 16:57:00,
2013-09-02 12:00:00,82.0,74.1,29.95,NNE,23,2.0,4.0,77,0.00,,CLR,0.07,0.00,VWS V15.00,2013-09-02 17:00:00,
2013-09-02 12:02:00,81.0,75.0,29.95,NE,34,2.0,2.0,82,0.00,,-RA,0.07,0.00,VWS V14.01,2013-09-02 17:02:00,
2013-09-02 12:07:00,81.2,75.2,29.95,ENE,69,3.0,3.0,82,0.00,,-RA,0.07,0.00,VWS V14.01,2013-09-02 17:07:00,
2013-09-02 12:10:00,81.7,73.8,29.95,NE,38,3.0,5.0,77,0.00,,CLR,0.07,0.00,VWS V15.00,2013-09-02 17:10:00,
2013-09-02 12:12:00,81.4,75.4,29.95,WNW,291,1.0,1.0,82,0.00,,-RA,0.07,0.00,VWS V14.01,2013-09-02 17:12:00,
2013-09-02 12:17:00,81.6,75.6,29.94,NNW,331,1.0,2.0,82,0.00,,-RA,0.07,0.00,VWS V14.01,2013-09-02 17:17:00,
2013-09-02 12:20:00,81.5,73.2,29.96,North,5,1.0,5.0,76,0.00,,CLR,0.07,0.00,VWS V15.00,2013-09-02 17:20:00,
2013-09-02 12:22:00,81.7,74.6,29.94,West,279,2.0,3.0,79,0.00,,-RA,0.07,0.00,VWS V14.01,2013-09-02 17:22:00,
2013-09-02 12:27:00,82.1,74.6,29.94,NNE,24,0.0,3.0,78,0.00,,-RA,0.07,0.00,VWS V14.01,2013-09-02 17:27:00,
2013-09-02 12:30:00,81.6,73.7,29.95,NE,39,3.0,7.0,77,0.00,,CLR,0.07,0.00,VWS V15.00,2013-09-02 17:30:00,
2013-09-02 12:32:00,82.5,74.2,29.94,NW,317,0.0,1.0,76,0.00,,-RA,0.07,0.00,VWS V14.01,2013-09-02 17:32:00,
2013-09-02 12:37:00,82.7,73.2,29.94,WNW,302,0.0,4.0,73,0.00,,OVC150,0.07,0.00,VWS V14.01,2013-09-02 17:37:00,
2013-09-02 12:40:00,81.4,75.0,29.95,NE,51,1.0,7.0,81,0.00,,CLR,0.07,0.00,VWS V15.00,2013-09-02 17:40:00,
2013-09-02 12:42:00,83.0,73.5,29.94,WNW,296,2.0,2.0,73,0.00,,OVC150,0.07,0.00,VWS V14.01,2013-09-02 17:42:00,
2013-09-02 12:47:00,82.9,72.5,29.93,NW,309,2.0,4.0,71,0.00,,OVC150,0.07,0.00,VWS V14.01,2013-09-02 17:47:00,
2013-09-02 12:50:00,81.1,75.4,29.95,NNW,348,5.0,6.0,83,0.00,,CLR,0.07,0.00,VWS V15.00,2013-09-02 17:50:00,
2013-09-02 12:52:00,82.7,71.9,29.93,NNW,344,1.0,1.0,70,0.00,,OVC150,0.07,0.00,VWS V14.01,2013-09-02 17:52:00,
2013-09-02 12:57:00,83.0,72.2,29.93,NNW,348,2.0,2.0,70,0.00,,OVC150,0.07,0.00,VWS V14.01,2013-09-02 17:57:00,
2013-09-02 13:00:00,81.0,75.0,29.95,NE,34,2.0,7.0,82,0.00,,CLR,0.07,0.00,VWS V15.00,2013-09-02 18:00:00,
2013-09-02 13:02:00,83.0,71.8,29.93,NW,312,1.0,2.0,69,0.00,,OVC150,0.07,0.00,VWS V14.01,2013-09-02 18:02:00,
2013-09-02 13:07:00,83.2,72.0,29.93,NNW,329,2.0,4.0,69,0.00,,SCT110,0.07,0.00,VWS V14.01,2013-09-02 18:07:00,
2013-09-02 13:10:00,81.4,75.4,29.95,WNW,291,1.0,3.0,82,0.00,,CLR,0.07,0.00,VWS V15.00,2013-09-02 18:10:00,
2013-09-02 13:12:00,83.4,71.7,29.93,NNE,22,2.0,3.0,68,0.00,,OVC150,0.07,0.00,VWS V14.01,2013-09-02 18:12:00,
2013-09-02 13:17:00,83.6,71.9,29.92,NW,321,1.0,4.0,68,0.00,,OVC150,0.07,0.00,VWS V14.01,2013-09-02 18:17:00,
2013-09-02 13:20:00,81.7,74.6,29.94,NW,323,3.0,3.0,79,0.00,,CLR,0.07,0.00,VWS V15.00,2013-09-02 18:20:00,
2013-09-02 13:22:00,84.0,72.3,29.92,NE,54,1.0,2.0,68,0.00,,OVC150,0.07,0.00,VWS V14.01,2013-09-02 18:22:00,
2013-09-02 13:27:00,84.2,72.5,29.92,WNW,292,1.0,4.0,68,0.00,,OVC150,0.07,0.00,VWS V14.01,2013-09-02 18:27:00,
2013-09-02 13:30:00,82.5,74.2,29.94,NE,40,1.0,4.0,76,0.00,,CLR,0.07,0.00,VWS V15.00,2013-09-02 18:30:00,
2013-09-02 13:32:00,84.2,72.9,29.91,NW,323,1.0,2.0,69,0.00,,OVC150,0.07,0.00,VWS V14.01,2013-09-02 18:32:00,
2013-09-02 13:37:00,84.1,72.8,29.91,NE,46,2.0,3.0,69,0.00,,OVC150,0.07,0.00,VWS V14.01,2013-09-02 18:37:00,
2013-09-02 13:40:00,83.0,73.5,29.94,West,261,1.0,4.0,73,0.00,,CLR,0.07,0.00,VWS V15.00,2013-09-02 18:40:00,
2013-09-02 13:42:00,84.3,73.0,29.91,NE,43,2.0,2.0,69,0.00,,OVC150,0.07,0.00,VWS V14.01,2013-09-02 18:42:00,
2013-09-02 13:47:00,84.4,73.6,29.91,West,280,0.0,3.0,70,0.00,,OVC150,0.07,0.00,VWS V14.01,2013-09-02 18:47:00,
2013-09-02 13:50:00,82.7,71.9,29.93,NW,308,1.0,4.0,70,0.00,,CLR,0.07,0.00,VWS V15.00,2013-09-02 18:50:00,
2013-09-02 13:52:00,84.6,73.3,29.91,SSW,209,0.0,0.0,69,0.00,,OVC150,0.07,0.00,VWS V14.01,2013-09-02 18:52:00,
2013-09-02 13:57:00,85.2,73.9,29.91,WSW,242,1.0,1.0,69,0.00,,OVC150,0.07,0.00,VWS V14.01,2013-09-02 18:57:00,
2013-09-02 14:00:00,83.0,71.8,29.93,NW,325,2.0,4.0,69,0.00,,CLR,0.07,0.00,VWS V15.00,2013-09-02 19:00:00,
2013-09-02 14:02:00,85.5,73.7,29.90,WSW,248,1.0,2.0,68,0.00,,OVC150,0.07,0.00,VWS V14.01,2013-09-02 19:02:00,
2013-09-02 14:07:00,85.7,73.5,29.90,WNW,284,0.0,3.0,67,0.00,,SHRA,0.07,0.00,VWS V14.01,2013-09-02 19:07:00,
2013-09-02 14:10:00,83.4,71.7,29.93,NW,321,3.0,5.0,68,0.00,,CLR,0.07,0.00,VWS V15.00,2013-09-02 19:10:00,
2013-09-02 14:12:00,85.8,73.1,29.90,NNE,16,0.0,0.0,66,0.00,,OVC150,0.07,0.00,VWS V14.01,2013-09-02 19:12:00,
2013-09-02 14:17:00,85.9,72.8,29.90,East,99,1.0,4.0,65,0.00,,OVC150,0.07,0.00,VWS V14.01,2013-09-02 19:17:00,
2013-09-02 14:20:00,83.9,72.2,29.92,NE,54,2.0,4.0,68,0.00,,CLR,0.07,0.00,VWS V15.00,2013-09-02 19:20:00,
2013-09-02 14:22:00,86.6,73.9,29.90,WNW,303,1.0,1.0,66,0.00,,OVC150,0.07,0.00,VWS V14.01,2013-09-02 19:22:00,
2013-09-02 14:27:00,87.4,73.7,29.90,NNE,31,2.0,3.0,64,0.00,,OVC150,0.07,0.00,VWS V14.01,2013-09-02 19:27:00,
2013-09-02 14:30:00,84.3,73.0,29.91,NW,319,2.0,5.0,69,0.00,,CLR,0.07,0.00,VWS V15.00,2013-09-02 19:30:00,
2013-09-02 14:32:00,87.9,73.7,29.89,SW,222,2.0,2.0,63,0.00,,OVC150,0.07,0.00,VWS V14.01,2013-09-02 19:32:00,
2013-09-02 14:37:00,87.7,74.5,29.89,SE,131,1.0,3.0,65,0.00,,BKN250,0.07,0.00,VWS V14.01,2013-09-02 19:37:00,
2013-09-02 14:40:00,84.3,73.0,29.91,NW,304,0.0,3.0,69,0.00,,CLR,0.07,0.00,VWS V15.00,2013-09-02 19:40:00,
2013-09-02 14:42:00,88.5,74.3,29.89,East,98,3.0,3.0,63,0.00,,BKN250,0.07,0.00,VWS V14.01,2013-09-02 19:42:00,
2013-09-02 14:47:00,88.8,74.6,29.88,WSW,240,0.0,3.0,63,0.00,,BKN250,0.07,0.00,VWS V14.01,2013-09-02 19:47:00,
2013-09-02 14:50:00,84.6,73.3,29.91,SSW,209,0.0,3.0,69,0.00,,CLR,0.07,0.00,VWS V15.00,2013-09-02 19:50:00,
2013-09-02 14:52:00,89.1,74.9,29.88,WSW,237,0.0,0.0,63,0.00,,BKN250,0.07,0.00,VWS V14.01,2013-09-02 19:52:00,
2013-09-02 14:57:00,89.7,75.4,29.88,SE,130,3.0,3.0,63,0.00,,BKN250,0.07,0.00,VWS V14.01,2013-09-02 19:57:00,
2013-09-02 15:00:00,85.5,73.7,29.90,WSW,248,1.0,2.0,68,0.00,,CLR,0.07,0.00,VWS V15.00,2013-09-02 20:00:00,
2013-09-02 15:02:00,89.6,74.9,29.88,SE,134,1.0,2.0,62,0.00,,BKN250,0.07,0.00,VWS V14.01,2013-09-02 20:02:00,
2013-09-02 15:07:00,89.6,75.3,29.88,SE,126,3.0,4.0,63,0.00,,BKN250,0.07,0.00,VWS V14.01,2013-09-02 20:07:00,
2013-09-02 15:10:00,85.8,73.1,29.90,NNE,16,0.0,3.0,66,0.00,,CLR,0.07,0.00,VWS V15.00,2013-09-02 20:10:00,
2013-09-02 15:12:00,89.7,74.5,29.88,SE,136,1.0,1.0,61,0.00,,BKN250,0.07,0.00,VWS V14.01,2013-09-02 20:12:00,
2013-09-02 15:17:00,89.2,75.0,29.87,SE,138,1.0,7.0,63,0.00,,BKN250,0.07,0.00,VWS V14.01,2013-09-02 20:17:00,
2013-09-02 15:20:00,86.5,73.8,29.90,WNW,287,0.0,4.0,66,0.00,,CLR,0.07,0.00,VWS V15.00,2013-09-02 20:20:00,
2013-09-02 15:22:00,88.9,74.2,29.87,ESE,122,1.0,1.0,62,0.00,,BKN250,0.07,0.00,VWS V14.01,2013-09-02 20:22:00,
2013-09-02 15:27:00,89.3,75.1,29.87,South,173,0.0,3.0,63,0.00,,BKN250,0.07,0.00,VWS V14.01,2013-09-02 20:27:00,
2013-09-02 15:30:00,87.9,73.7,29.89,SW,217,2.0,3.0,63,0.00,,CLR,0.07,0.00,VWS V15.00,2013-09-02 20:30:00,
2013-09-02 15:32:00,90.0,75.7,29.87,ESE,112,2.0,3.0,63,0.00,,BKN250,0.07,0.00,VWS V14.01,2013-09-02 20:32:00,
2013-09-02 15:37:00,90.1,74.3,29.87,SE,137,1.0,5.0,60,0.00,,BKN250,0.07,0.00,VWS V14.01,2013-09-02 20:37:00,
2013-09-02 15:40:00,88.4,74.7,29.89,SE,131,1.0,3.0,64,0.00,,CLR,0.07,0.00,VWS V15.00,2013-09-02 20:40:00,
2013-09-02 15:42:00,91.2,75.4,29.87,SE,138,1.0,1.0,60,0.00,,BKN250,0.07,0.00,VWS V14.01,2013-09-02 20:42:00,
2013-09-02 15:47:00,92.4,75.0,29.85,ESE,111,3.0,4.0,57,0.00,,BKN250,0.07,0.00,VWS V14.01,2013-09-02 20:47:00,
2013-09-02 15:50:00,89.1,74.9,29.88,SSW,211,0.0,4.0,63,0.00,,CLR,0.07,0.00,VWS V15.00,2013-09-02 20:50:00,
2013-09-02 15:52:00,92.4,75.5,29.85,ESE,118,2.0,3.0,58,0.00,,BKN250,0.07,0.00,VWS V14.01,2013-09-02 20:52:00,
2013-09-02 15:57:00,92.7,75.8,29.85,SW,219,0.0,3.0,58,0.00,,BKN250,0.07,0.00,VWS V14.01,2013-09-02 20:57:00,
2013-09-02 16:00:00,89.6,74.9,29.88,SE,128,2.0,3.0,62,0.00,,OVC270,0.07,0.00,VWS V15.00,2013-09-02 21:00:00,
2013-09-02 16:02:00,93.1,75.6,29.85,SE,132,2.0,2.0,57,0.00,,BKN250,0.07,0.00,VWS V14.01,2013-09-02 21:02:00,
2013-09-02 16:07:00,93.1,74.6,29.85,SSW,200,1.0,5.0,55,0.00,,BKN250,0.07,0.00,VWS V14.01,2013-09-02 21:07:00,
2013-09-02 16:10:00,89.7,75.0,29.88,SE,144,1.0,4.0,62,0.00,,CLR,0.07,0.00,VWS V15.00,2013-09-02 21:10:00,
2013-09-02 16:12:00,93.8,74.7,29.85,SSW,210,0.0,1.0,54,0.00,,BKN250,0.07,0.00,VWS V14.01,2013-09-02 21:12:00,
2013-09-02 16:17:00,93.8,74.1,29.84,SSW,200,1.0,3.0,53,0.00,,BKN250,0.07,0.00,VWS V14.01,2013-09-02 21:17:00,
2013-09-02 16:20:00,88.9,74.2,29.87,SE,128,1.0,7.0,62,0.00,,CLR,0.07,0.00,VWS V15.00,2013-09-02 21:20:00,
2013-09-02 16:22:00,94.7,74.9,29.84,SE,132,1.0,3.0,53,0.00,,BKN250,0.07,0.00,VWS V14.01,2013-09-02 21:22:00,
2013-09-02 16:27:00,94.8,74.4,29.84,ESE,120,2.0,4.0,52,0.00,,BKN250,0.07,0.00,VWS V14.01,2013-09-02 21:27:00,
2013-09-02 16:30:00,89.9,75.6,29.87,ESE,111,3.0,4.0,63,0.00,,CLR,0.07,0.00,VWS V15.00,2013-09-02 21:30:00,
2013-09-02 16:32:00,94.9,75.1,29.83,SE,144,1.0,1.0,53,0.00,,BKN250,0.07,0.00,VWS V14.01,2013-09-02 21:32:00,
2013-09-02 16:37:00,94.7,74.9,29.83,SSE,165,1.0,3.0,53,0.00,,BKN250,0.07,0.00,VWS V14.01,2013-09-02 21:37:00,
2013-09-02 16:40:00,91.1,75.3,29.87,SE,144,0.0,5.0,60,0.00,,CLR,0.07,0.00,VWS V15.00,2013-09-02 21:40:00,
2013-09-02 16:42:00,94.8,75.6,29.83,SE,134,0.0,1.0,54,0.00,,BKN250,0.07,0.00,VWS V14.01,2013-09-02 21:42:00,
2013-09-02 16:47:00,95.4,76.1,29.83,SW,221,0.0,2.0,54,0.00,,BKN250,0.07,0.00,VWS V14.01,2013-09-02 21:47:00,
2013-09-02 16:50:00,92.4,75.0,29.85,SE,146,1.0,6.0,57,0.00,,CLR,0.07,0.00,VWS V15.00,2013-09-02 21:50:00,
2013-09-02 16:52:00,95.8,75.9,29.83,South,169,2.0,2.0,53,0.00,,BKN250,0.07,0.00,VWS V14.01,2013-09-02 21:52:00,
2013-09-02 16:57:00,96.2,75.2,29.83,SSW,209,1.0,2.0,51,0.00,,BKN250,0.07,0.00,VWS V14.01,2013-09-02 21:57:00,
2013-09-02 17:00:00,93.1,75.6,29.85,SE,127,2.0,4.0,57,0.00,,CLR,0.07,0.00,VWS V15.00,2013-09-02 22:00:00,
2013-09-02 17:02:00,96.5,76.0,29.82,East,100,2.0,2.0,52,0.00,,BKN250,0.07,0.00,VWS V14.01,2013-09-02 22:02:00,
2013-09-02 17:07:00,95.8,75.9,29.82,SSE,153,0.0,4.0,53,0.00,,BKN250,0.07,0.00,VWS V14.01,2013-09-02 22:07:00,
2013-09-02 17:10:00,93.8,74.7,29.85,SSW,210,1.0,5.0,54,0.00,,CLR,0.07,0.00,VWS V15.00,2013-09-02 22:10:00,
2013-09-02 17:12:00,95.3,76.6,29.82,SE,128,1.0,1.0,55,0.00,,BKN250,0.07,0.00,VWS V14.01,2013-09-02 22:12:00,
2013-09-02 17:17:00,95.4,76.1,29.82,South,176,1.0,3.0,54,0.00,,BKN250,0.07,0.00,VWS V14.01,2013-09-02 22:17:00,
2013-09-02 17:20:00,94.7,74.9,29.84,SW,223,3.0,3.0,53,0.00,,CLR,0.07,0.00,VWS V15.00,2013-09-02 22:20:00,
2013-09-02 17:22:00,95.2,75.4,29.82,SE,134,0.0,1.0,53,0.00,,BKN250,0.07,0.00,VWS V14.01,2013-09-02 22:22:00,
2013-09-02 17:27:00,95.0,75.2,29.82,SE,134,0.0,3.0,53,0.00,,BKN250,0.07,0.00,VWS V14.01,2013-09-02 22:27:00,
2013-09-02 17:30:00,94.9,75.1,29.83,SE,144,1.0,4.0,53,0.00,,CLR,0.07,0.00,VWS V15.00,2013-09-02 22:30:00,
2013-09-02 17:32:00,95.8,73.6,29.82,East,84,2.0,3.0,49,0.00,,BKN250,0.07,0.00,VWS V14.01,2013-09-02 22:32:00,
2013-09-02 17:37:00,95.2,73.0,29.82,SSE,150,0.0,4.0,49,0.00,,BKN270,0.07,0.00,VWS V14.01,2013-09-02 22:37:00,
2013-09-02 17:40:00,94.8,75.6,29.83,SE,134,1.0,3.0,54,0.00,,CLR,0.07,0.00,VWS V15.00,2013-09-02 22:40:00,
2013-09-02 17:42:00,95.2,73.0,29.82,SSW,195,1.0,1.0,49,0.00,,BKN270,0.07,0.00,VWS V14.01,2013-09-02 22:42:00,
2013-09-02 17:47:00,95.5,71.4,29.82,East,101,1.0,4.0,46,0.00,,BKN270,0.07,0.00,VWS V14.01,2013-09-02 22:47:00,
2013-09-02 17:50:00,95.8,75.9,29.83,South,187,1.0,2.0,53,0.00,,CLR,0.07,0.00,VWS V15.00,2013-09-02 22:50:00,
2013-09-02 17:52:00,95.4,72.6,29.82,ESE,113,0.0,1.0,48,0.00,,BKN270,0.07,0.00,VWS V14.01,2013-09-02 22:52:00,
2013-09-02 17:57:00,95.8,72.3,29.82,SW,234,1.0,2.0,47,0.00,,BKN270,0.07,0.00,VWS V14.01,2013-09-02 22:57:00,
2013-09-02 18:00:00,96.5,76.0,29.82,SE,132,1.0,3.0,52,0.00,,CLR,0.07,0.00,VWS V15.00,2013-09-02 23:00:00,
2013-09-02 18:02:00,95.9,73.1,29.81,ESE,117,2.0,2.0,48,0.00,,BKN270,0.07,0.00,VWS V14.01,2013-09-02 23:02:00,
2013-09-02 18:07:00,95.2,72.4,29.81,ESE,122,1.0,2.0,48,0.00,,BKN270,0.07,0.00,VWS V14.01,2013-09-02 23:07:00,
2013-09-02 18:10:00,95.3,76.6,29.82,SE,128,1.0,4.0,55,0.00,,CLR,0.07,0.00,VWS V15.00,2013-09-02 23:10:00,
2013-09-02 18:12:00,95.0,72.2,29.81,SE,132,0.0,0.0,48,0.00,,BKN270,0.07,0.00,VWS V14.01,2013-09-02 23:12:00,
2013-09-02 18:17:00,95.0,72.9,29.81,SE,128,0.0,3.0,49,0.00,,BKN270,0.07,0.00,VWS V14.01,2013-09-02 23:17:00,
2013-09-02 18:20:00,95.3,75.5,29.82,SE,135,1.0,4.0,53,0.00,,CLR,0.07,0.00,VWS V15.00,2013-09-02 23:20:00,
2013-09-02 18:22:00,95.8,73.6,29.81,South,175,0.0,1.0,49,0.00,,BKN270,0.07,0.00,VWS V14.01,2013-09-02 23:22:00,
2013-09-02 18:27:00,95.4,72.6,29.81,ESE,106,0.0,3.0,48,0.00,,BKN270,0.07,0.00,VWS V14.01,2013-09-02 23:27:00,
2013-09-02 18:30:00,95.7,74.1,29.82,East,100,1.0,3.0,50,0.00,,CLR,0.07,0.00,VWS V15.00,2013-09-02 23:30:00,
2013-09-02 18:32:00,94.8,72.7,29.81,ESE,121,0.0,0.0,49,0.00,,BKN270,0.07,0.00,VWS V14.01,2013-09-02 23:32:00,
2013-09-02 18:37:00,94.4,71.7,29.81,ESE,113,0.0,3.0,48,0.00,,,0.07,0.00,VWS V14.01,2013-09-02 23:37:00,
2013-09-02 18:40:00,95.2,73.0,29.82,South,190,1.0,4.0,49,0.00,,CLR,0.07,0.00,VWS V15.00,2013-09-02 23:40:00,
2013-09-02 18:42:00,94.1,72.0,29.81,ESE,120,0.0,1.0,49,0.00,,,0.07,0.00,VWS V14.01,2013-09-02 23:42:00,
2013-09-02 18:47:00,94.6,73.1,29.81,SE,130,0.0,1.0,50,0.00,,,0.07,0.00,VWS V14.01,2013-09-02 23:47:00,
2013-09-02 18:50:00,95.4,72.6,29.82,ESE,112,0.0,4.0,48,0.00,,CLR,0.07,0.00,VWS V15.00,2013-09-02 23:50:00,
2013-09-02 18:52:00,95.0,72.2,29.81,SW,233,0.0,0.0,48,0.00,,,0.07,0.00,VWS V14.01,2013-09-02 23:52:00,
2013-09-02 18:58:00,94.5,70.5,29.81,SE,132,1.0,3.0,46,0.00,,,0.07,0.00,VWS V14.01,2013-09-02 23:58:00,
2013-09-02 19:00:00,96.0,73.2,29.81,ESE,113,2.0,3.0,48,0.00,,CLR,0.07,0.00,VWS V15.00,2013-09-03 00:00:00,
2013-09-02 19:03:00,94.1,71.4,29.80,SE,124,0.0,0.0,48,0.00,,,0.07,0.00,VWS V14.01,2013-09-03 00:03:00,
2013-09-02 19:08:00,94.1,70.8,29.80,SE,136,1.0,1.0,47,0.00,,,0.07,0.00,VWS V14.01,2013-09-03 00:08:00,
2013-09-02 19:10:00,95.0,72.2,29.81,SE,132,0.0,3.0,48,0.00,,CLR,0.07,0.00,VWS V15.00,2013-09-03 00:10:00,
2013-09-02 19:12:00,93.8,71.2,29.80,ENE,66,0.0,0.0,48,0.00,,,0.07,0.00,VWS V14.01,2013-09-03 00:12:00,
2013-09-02 19:18:00,93.4,70.8,29.80,East,81,0.0,2.0,48,0.00,,,0.07,0.00,VWS V14.01,2013-09-03 00:18:00,
2013-09-02 19:20:00,95.8,73.6,29.81,South,175,1.0,3.0,49,0.00,,CLR,0.07,0.00,VWS V15.00,2013-09-03 00:20:00,
2013-09-02 19:23:00,93.3,71.3,29.80,East,98,0.0,0.0,49,0.00,,,0.07,0.00,VWS V14.01,2013-09-03 00:23:00,
2013-09-02 19:28:00,93.0,71.0,29.80,SSE,155,1.0,1.0,49,0.00,,,0.07,0.00,VWS V14.01,2013-09-03 00:28:00,
2013-09-02 19:30:00,94.9,72.8,29.81,ESE,121,0.0,3.0,49,0.00,,CLR,0.07,0.00,VWS V15.00,2013-09-03 00:30:00,
2013-09-02 19:33:00,92.4,72.2,29.81,SSE,165,0.0,0.0,52,0.00,,,0.07,0.00,VWS V14.01,2013-09-03 00:33:00,
2013-09-02 19:38:00,91.7,74.8,29.81,ESE,122,0.0,1.0,58,0.00,,,0.07,0.00,VWS V14.01,2013-09-03 00:38:00,
2013-09-02 19:40:00,94.1,72.6,29.81,ESE,119,1.0,3.0,50,0.00,,CLR,0.07,0.00,VWS V15.00,2013-09-03 00:40:00,
2013-09-02 19:43:00,90.9,75.6,29.81,SE,136,0.0,0.0,61,0.00,,,0.07,0.00,VWS V14.01,2013-09-03 00:43:00,
2013-09-02 19:48:00,90.3,76.0,29.81,SSE,159,0.0,1.0,63,0.00,,,0.07,0.00,VWS V14.01,2013-09-03 00:48:00,
2013-09-02 19:50:00,95.0,72.2,29.81,SW,233,0.0,1.0,48,0.00,,CLR,0.07,0.00,VWS V15.00,2013-09-03 00:50:00,
2013-09-02 19:53:00,89.7,76.4,29.81,SSE,147,0.0,1.0,65,0.00,,,0.07,0.00,VWS V14.01,2013-09-03 00:53:00,
2013-09-02 19:57:00,89.2,75.9,29.81,SE,130,1.0,2.0,65,0.00,,,0.07,0.00,VWS V14.01,2013-09-03 00:57:00,
2013-09-02 20:00:00,94.2,71.5,29.80,SE,124,0.0,3.0,48,0.00,,CLR,0.07,0.00,VWS V15.00,2013-09-03 01:00:00,
2013-09-02 20:02:00,88.7,76.3,29.81,SE,128,0.0,1.0,67,0.00,,,0.07,0.00,VWS V14.01,2013-09-03 01:02:00,
2013-09-02 20:08:00,88.3,76.0,29.81,South,169,0.0,3.0,67,0.00,,,0.07,0.00,VWS V14.01,2013-09-03 01:08:00,
2013-09-02 20:10:00,93.8,71.2,29.80,ENE,65,0.0,2.0,48,0.00,,CLR,0.07,0.00,VWS V15.00,2013-09-03 01:10:00,
2013-09-02 20:12:00,87.9,76.0,29.81,South,191,1.0,1.0,68,0.00,,,0.07,0.00,VWS V14.01,2013-09-03 01:12:00,
2013-09-02 20:17:00,87.6,75.7,29.82,ESE,118,2.0,2.0,68,0.00,,,0.07,0.00,VWS V14.01,2013-09-03 01:17:00,
2013-09-02 20:20:00,93.3,71.3,29.80,East,88,0.0,2.0,49,0.00,,CLR,0.07,0.00,VWS V15.00,2013-09-03 01:20:00,
2013-09-02 20:22:00,87.4,75.6,29.82,SSW,213,1.0,1.0,68,0.00,,,0.07,0.00,VWS V14.01,2013-09-03 01:22:00,
2013-09-02 20:27:00,87.2,75.4,29.82,SSW,209,1.0,2.0,68,0.00,,,0.07,0.00,VWS V14.01,2013-09-03 01:27:00,
2013-09-02 20:30:00,92.4,72.2,29.81,SSE,166,0.0,1.0,52,0.00,,CLR,0.07,0.00,VWS V15.00,2013-09-03 01:30:00,
2013-09-02 20:32:00,87.1,75.3,29.82,SSW,213,1.0,1.0,68,0.00,,,0.07,0.00,VWS V14.01,2013-09-03 01:32:00,
2013-09-02 20:37:00,87.0,74.7,29.82,South,191,1.0,2.0,67,0.00,,,0.07,0.00,VWS V14.01,2013-09-03 01:37:00,
2013-09-02 20:40:00,91.0,75.7,29.81,SE,136,0.0,2.0,61,0.00,,CLR,0.07,0.00,VWS V15.00,2013-09-03 01:40:00,
2013-09-02 20:42:00,86.8,75.0,29.82,SW,219,1.0,1.0,68,0.00,,,0.07,0.00,VWS V14.01,2013-09-03 01:42:00,
2013-09-02 20:47:00,86.6,74.8,29.82,SW,234,1.0,3.0,68,0.00,,,0.07,0.00,VWS V14.01,2013-09-03 01:47:00,
2013-09-02 20:50:00,89.8,76.5,29.81,SE,146,1.0,2.0,65,0.00,,CLR,0.07,0.00,VWS V15.00,2013-09-03 01:50:00,
2013-09-02 20:52:00,86.6,74.8,29.82,SW,214,0.0,0.0,68,0.00,,,0.07,0.00,VWS V14.01,2013-09-03 01:52:00,
2013-09-02 20:57:00,86.5,75.1,29.82,SW,219,0.0,2.0,69,0.00,,,0.07,0.00,VWS V14.01,2013-09-03 01:57:00,
2013-09-02 21:00:00,88.7,76.3,29.81,SE,128,0.0,2.0,67,0.00,,CLR,0.07,0.00,VWS V15.00,2013-09-03 02:00:00,
2013-09-02 21:03:00,86.3,74.9,29.82,SW,218,1.0,1.0,69,0.00,,,0.07,0.00,VWS V14.01,2013-09-03 02:03:00,
2013-09-02 21:08:00,86.2,74.8,29.82,SW,222,1.0,1.0,69,0.00,,,0.07,0.00,VWS V14.01,2013-09-03 02:08:00,
2013-09-02 21:10:00,87.9,76.0,29.81,South,191,1.0,3.0,68,0.00,,CLR,0.07,0.00,VWS V15.00,2013-09-03 02:10:00,
2013-09-02 21:12:00,86.1,75.2,29.82,SW,222,1.0,1.0,70,0.00,,,0.07,0.00,VWS V14.01,2013-09-03 02:12:00,
2013-09-02 21:17:00,86.1,74.8,29.84,SSW,210,1.0,3.0,69,0.00,,,0.07,0.00,VWS V14.01,2013-09-03 02:17:00,
2013-09-02 21:20:00,87.4,75.6,29.82,SSW,213,1.0,2.0,68,0.00,,CLR,0.07,0.00,VWS V15.00,2013-09-03 02:20:00,
2013-09-02 21:22:00,85.9,75.0,29.84,SSW,208,0.0,0.0,70,0.00,,,0.07,0.00,VWS V14.01,2013-09-03 02:22:00,
2013-09-02 21:27:00,85.8,74.5,29.84,SW,221,0.0,2.0,69,0.00,,,0.07,0.00,VWS V14.01,2013-09-03 02:27:00,
2013-09-02 21:30:00,87.2,75.4,29.82,SSW,213,1.0,2.0,68,0.00,,CLR,0.07,0.00,VWS V15.00,2013-09-03 02:30:00,
2013-09-02 21:32:00,85.7,73.9,29.84,SW,223,0.0,0.0,68,0.00,,,0.07,0.00,VWS V14.01,2013-09-03 02:32:00,
2013-09-02 21:37:00,85.8,74.5,29.84,SW,225,1.0,2.0,69,0.00,,BKN270,0.07,0.00,VWS V14.01,2013-09-03 02:37:00,
2013-09-02 21:40:00,86.8,75.0,29.82,SW,218,1.0,2.0,68,0.00,,CLR,0.07,0.00,VWS V15.00,2013-09-03 02:40:00,
2013-09-02 21:42:00,85.7,74.4,29.84,SW,226,0.0,0.0,69,0.00,,BKN270,0.07,0.00,VWS V14.01,2013-09-03 02:42:00,
2013-09-02 21:47:00,85.5,74.2,29.84,SW,225,0.0,1.0,69,0.00,,BKN270,0.07,0.00,VWS V14.01,2013-09-03 02:47:00,
2013-09-02 21:50:00,86.6,74.8,29.82,SW,214,0.0,3.0,68,0.00,,CLR,0.07,0.00,VWS V15.00,2013-09-03 02:50:00,
2013-09-02 21:52:00,85.4,74.1,29.84,SSW,211,0.0,0.0,69,0.00,,BKN270,0.07,0.00,VWS V14.01,2013-09-03 02:52:00,
2013-09-02 21:57:00,85.3,74.0,29.84,SSW,211,0.0,1.0,69,0.00,,BKN270,0.07,0.00,VWS V14.01,2013-09-03 02:57:00,
2013-09-02 22:00:00,86.4,75.0,29.82,SW,218,1.0,3.0,69,0.00,,CLR,0.07,0.00,VWS V15.00,2013-09-03 03:00:00,
2013-09-02 22:02:00,85.2,73.4,29.85,SSW,211,0.0,0.0,68,0.00,,BKN270,0.07,0.00,VWS V14.01,2013-09-03 03:02:00,
2013-09-02 22:07:00,85.2,74.3,29.85,SW,229,0.0,1.0,70,0.00,,BKN270,0.07,0.00,VWS V14.01,2013-09-03 03:07:00,
2013-09-02 22:10:00,86.1,75.2,29.82,SW,222,1.0,1.0,70,0.00,,CLR,0.07,0.00,VWS V15.00,2013-09-03 03:10:00,
2013-09-02 22:12:00,85.1,74.2,29.85,SW,230,0.0,0.0,70,0.00,,BKN270,0.07,0.00,VWS V14.01,2013-09-03 03:12:00,
2013-09-02 22:17:00,85.1,74.6,29.85,SW,230,0.0,1.0,71,0.00,,BKN270,0.07,0.00,VWS V14.01,2013-09-03 03:17:00,
2013-09-02 22:20:00,86.0,75.1,29.84,SSW,208,0.0,3.0,70,0.00,,CLR,0.07,0.00,VWS V15.00,2013-09-03 03:20:00,
2013-09-02 22:22:00,84.9,74.4,29.85,SW,230,0.0,0.0,71,0.00,,BKN270,0.07,0.00,VWS V14.01,2013-09-03 03:22:00,
2013-09-02 22:27:00,84.6,73.7,29.85,SW,215,0.0,2.0,70,0.00,,BKN270,0.07,0.00,VWS V14.01,2013-09-03 03:27:00,
2013-09-02 22:30:00,85.7,73.9,29.84,SW,222,0.0,2.0,68,0.00,,CLR,0.07,0.00,VWS V15.00,2013-09-03 03:30:00,
2013-09-02 22:32:00,84.5,73.7,29.86,SW,214,0.0,0.0,70,0.00,,BKN270,0.07,0.00,VWS V14.01,2013-09-03 03:32:00,
2013-09-02 22:37:00,84.2,73.4,29.86,SW,215,0.0,0.0,70,0.00,,CLR,0.07,0.00,VWS V14.01,2013-09-03 03:37:00,
2013-09-02 22:40:00,85.7,74.4,29.84,SW,226,0.0,2.0,69,0.00,,CLR,0.07,0.00,VWS V15.00,2013-09-03 03:40:00,
2013-09-02 22:42:00,84.3,73.5,29.86,SW,215,0.0,0.0,70,0.00,,CLR,0.07,0.00,VWS V14.01,2013-09-03 03:42:00,
2013-09-02 22:47:00,84.2,73.4,29.86,SW,215,0.0,0.0,70,0.00,,CLR,0.07,0.00,VWS V14.01,2013-09-03 03:47:00,
2013-09-02 22:50:00,85.4,74.1,29.84,SSW,211,0.0,2.0,69,0.00,,CLR,0.07,0.00,VWS V15.00,2013-09-03 03:50:00,
2013-09-02 22:52:00,83.9,73.5,29.86,SW,214,0.0,0.0,71,0.00,,CLR,0.07,0.00,VWS V14.01,2013-09-03 03:52:00,
2013-09-02 22:57:00,83.6,73.2,29.86,SW,214,0.0,0.0,71,0.00,,CLR,0.07,0.00,VWS V14.01,2013-09-03 03:57:00,
2013-09-02 23:00:00,85.2,73.9,29.85,SSW,211,0.0,2.0,69,0.00,,CLR,0.07,0.00,VWS V15.00,2013-09-03 04:00:00,
2013-09-02 23:01:00,83.5,73.1,29.86,SW,215,0.0,0.0,71,0.00,,CLR,0.07,0.00,VWS V14.01,2013-09-03 04:01:00,
2013-09-02 23:06:00,83.3,73.3,29.86,SW,214,0.0,0.0,72,0.00,,CLR,0.07,0.00,VWS V14.01,2013-09-03 04:06:00,
2013-09-02 23:10:00,85.1,74.2,29.85,SW,231,0.0,1.0,70,0.00,,CLR,0.07,0.00,VWS V15.00,2013-09-03 04:10:00,
2013-09-02 23:11:00,83.1,73.1,29.86,SW,215,0.0,0.0,72,0.00,,CLR,0.07,0.00,VWS V14.01,2013-09-03 04:11:00,
2013-09-02 23:16:00,83.2,73.7,29.86,SW,214,0.0,0.0,73,0.00,,CLR,0.07,0.00,VWS V14.01,2013-09-03 04:16:00,
2013-09-02 23:20:00,84.9,74.4,29.85,SW,230,0.0,1.0,71,0.00,,CLR,0.07,0.00,VWS V15.00,2013-09-03 04:20:00,
2013-09-02 23:21:00,83.2,73.7,29.86,SW,214,0.0,0.0,73,0.00,,CLR,0.07,0.00,VWS V14.01,2013-09-03 04:21:00,
2013-09-02 23:26:00,83.2,73.7,29.86,SW,214,0.0,0.0,73,0.00,,CLR,0.07,0.00,VWS V14.01,2013-09-03 04:26:00,
2013-09-02 23:30:00,84.5,73.7,29.86,SW,214,0.0,2.0,70,0.00,,CLR,0.07,0.00,VWS V15.00,2013-09-03 04:30:00,
2013-09-02 23:31:00,83.1,73.6,29.86,SW,215,0.0,0.0,73,0.00,,CLR,0.07,0.00,VWS V14.01,2013-09-03 04:31:00,
2013-09-02 23:36:00,83.0,73.5,29.86,SW,214,0.0,0.0,73,0.00,,CLR,0.07,0.00,VWS V14.01,2013-09-03 04:36:00,
2013-09-02 23:40:00,84.3,73.5,29.86,SW,214,0.0,0.0,70,0.00,,CLR,0.07,0.00,VWS V15.00,2013-09-03 04:40:00,
2013-09-02 23:41:00,82.8,73.7,29.86,SW,214,0.0,0.0,74,0.00,,CLR,0.07,0.00,VWS V14.01,2013-09-03 04:41:00,
2013-09-02 23:46:00,82.6,73.5,29.86,SW,214,0.0,0.0,74,0.00,,CLR,0.07,0.00,VWS V14.01,2013-09-03 04:46:00,
2013-09-02 23:50:00,83.9,73.5,29.86,SW,214,0.0,0.0,71,0.00,,CLR,0.07,0.00,VWS V15.00,2013-09-03 04:50:00,
2013-09-02 23:51:00,82.5,74.2,29.87,SW,215,0.0,1.0,76,0.00,,CLR,0.07,0.00,VWS V14.01,2013-09-03 04:51:00,
2013-09-02 23:56:00,82.5,74.6,29.87,NNW,337,1.0,4.0,77,0.00,,CLR,0.07,0.00,VWS V14.01,2013-09-03 04:56:00,